createdAt,value
2023-03-06T00:01:09.153Z,14.30
2023-03-06T00:03:35.874Z,16.27
2023-03-06T00:06:02.628Z,15.57
2023-03-06T00:08:29.958Z,17.27
2023-03-06T00:10:57.266Z,16.77
2023-03-06T00:13:24.995Z,17.90
2023-03-06T00:15:51.806Z,17.95
2023-03-06T00:18:18.528Z,18.00
2023-03-06T00:20:45.392Z,17.58
2023-03-06T00:23:12.516Z,21.17
2023-03-06T00:25:43.760Z,18.77
2023-03-06T00:28:12.147Z,19.83
2023-03-06T00:30:38.918Z,17.23
2023-03-06T00:33:05.698Z,18.88
2023-03-06T00:35:32.411Z,22.92
2023-03-06T00:37:59.812Z,19.50
2023-03-06T00:40:27.214Z,20.10
2023-03-06T00:42:53.922Z,20.00
2023-03-06T00:45:20.648Z,21.45
2023-03-06T00:47:47.355Z,23.75
2023-03-06T00:50:14.766Z,23.95
2023-03-06T00:52:42.067Z,29.23
2023-03-06T00:55:10.477Z,27.30
2023-03-06T00:57:37.242Z,26.73
2023-03-06T01:00:05.982Z,27.15
2023-03-06T01:02:32.820Z,26.50
2023-03-06T01:04:59.695Z,30.08
2023-03-06T01:07:27.752Z,33.30
2023-03-06T01:09:54.641Z,26.77
2023-03-06T01:12:23.481Z,28.48
2023-03-06T01:14:51.206Z,29.95
2023-03-06T01:17:17.847Z,26.98
2023-03-06T01:19:44.550Z,28.27
2023-03-06T01:22:13.557Z,27.63
2023-03-06T01:24:40.313Z,25.50
2023-03-06T01:27:07.043Z,26.95
2023-03-06T01:29:33.747Z,30.17
2023-03-06T01:32:00.642Z,26.33
2023-03-06T01:34:27.404Z,25.83
2023-03-06T01:36:54.108Z,30.30
2023-03-06T01:39:20.822Z,27.60
2023-03-06T01:41:47.557Z,29.55
2023-03-06T01:44:14.182Z,30.85
2023-03-06T01:46:45.621Z,31.75
2023-03-06T01:49:34.425Z,31.08
2023-03-06T01:52:11.756Z,33.33
2023-03-06T01:55:00.725Z,28.02
2023-03-06T01:57:40.521Z,29.10
2023-03-06T02:00:15.997Z,28.38
2023-03-06T02:02:50.272Z,29.48
2023-03-06T02:05:17.080Z,29.90
2023-03-06T02:07:45.327Z,35.08
2023-03-06T02:10:16.754Z,30.35
2023-03-06T02:12:45.609Z,35.80
2023-03-06T02:15:15.979Z,28.15
2023-03-06T02:17:45.225Z,30.48
2023-03-06T02:20:39.514Z,36.60
2023-03-06T02:23:15.076Z,29.80
2023-03-06T02:25:49.422Z,34.65
2023-03-06T02:28:20.083Z,33.47
2023-03-06T02:30:50.847Z,30.30
2023-03-06T02:33:21.465Z,30.83
2023-03-06T02:36:00.279Z,32.63
2023-03-06T02:38:45.499Z,32.88
2023-03-06T02:41:12.224Z,33.47
2023-03-06T02:43:42.815Z,33.58
2023-03-06T02:46:09.606Z,29.75
2023-03-06T02:48:36.603Z,35.63
2023-03-06T02:51:03.522Z,30.25
2023-03-06T02:53:30.265Z,36.38
2023-03-06T02:55:59.322Z,39.00
2023-03-06T02:58:26.161Z,35.78
2023-03-06T03:00:52.877Z,32.42
2023-03-06T03:03:20.511Z,27.63
2023-03-06T03:05:47.171Z,35.20
2023-03-06T03:08:28.355Z,32.03
2023-03-06T03:10:59.519Z,29.00
2023-03-06T03:13:29.945Z,31.75
2023-03-06T03:16:00.900Z,29.48
2023-03-06T03:18:28.432Z,31.60
2023-03-06T03:20:55.800Z,32.30
2023-03-06T03:23:23.737Z,34.72
2023-03-06T03:25:51.096Z,29.52
2023-03-06T03:28:19.223Z,28.52
2023-03-06T03:30:46.707Z,32.97
2023-03-06T03:33:14.980Z,31.15
2023-03-06T03:35:42.950Z,31.83
2023-03-06T03:38:10.200Z,29.13
2023-03-06T03:40:38.863Z,27.45
2023-03-06T03:43:05.567Z,27.88
2023-03-06T03:45:32.859Z,35.15
2023-03-06T03:47:59.562Z,31.95
2023-03-06T03:50:26.693Z,35.08
2023-03-06T03:52:53.497Z,34.45
2023-03-06T03:55:20.488Z,32.78
2023-03-06T03:57:47.251Z,28.02
2023-03-06T04:00:16.582Z,33.30
2023-03-06T04:02:52.438Z,39.60
2023-03-06T04:07:55.098Z,34.63
2023-03-06T04:10:21.828Z,34.15
2023-03-06T04:12:49.436Z,41.92
2023-03-06T04:15:16.854Z,35.35
2023-03-06T04:17:46.026Z,33.88
2023-03-06T04:20:16.074Z,38.05
2023-03-06T04:22:43.813Z,40.38
2023-03-06T04:25:11.705Z,34.30
2023-03-06T04:27:38.642Z,38.58
2023-03-06T04:30:07.835Z,39.58
2023-03-06T04:32:35.555Z,38.42
2023-03-06T04:35:03.570Z,37.33
2023-03-06T04:37:35.384Z,37.40
2023-03-06T04:40:02.407Z,38.75
2023-03-06T04:42:29.487Z,41.30
2023-03-06T04:44:56.268Z,40.25
2023-03-06T04:47:23.129Z,43.95
2023-03-06T04:49:49.873Z,43.28
2023-03-06T04:52:16.699Z,39.83
2023-03-06T04:54:43.452Z,38.42
2023-03-06T04:57:10.480Z,38.60
2023-03-06T04:59:39.174Z,41.40
2023-03-06T05:02:06.123Z,36.50
2023-03-06T05:04:32.905Z,43.30
2023-03-06T05:06:59.658Z,43.95
2023-03-06T05:09:26.496Z,42.22
2023-03-06T05:11:53.519Z,45.58
2023-03-06T05:14:20.661Z,48.20
2023-03-06T05:16:47.467Z,41.63
2023-03-06T05:19:14.274Z,43.75
2023-03-06T05:21:41.006Z,45.25
2023-03-06T05:24:07.834Z,49.50
2023-03-06T05:26:34.872Z,48.53
2023-03-06T05:29:01.844Z,43.42
2023-03-06T05:31:28.704Z,44.55
2023-03-06T05:33:57.602Z,42.38
2023-03-06T05:36:25.369Z,45.22
2023-03-06T05:38:52.248Z,40.53
2023-03-06T05:41:18.995Z,41.30
2023-03-06T05:43:45.707Z,48.17
2023-03-06T05:46:12.493Z,40.95
2023-03-06T05:48:39.333Z,43.53
2023-03-06T05:51:06.618Z,38.72
2023-03-06T05:53:33.410Z,37.78
2023-03-06T05:56:10.894Z,38.33
2023-03-06T05:58:38.533Z,38.05
2023-03-06T06:01:14.831Z,42.00
2023-03-06T06:03:41.994Z,41.08
2023-03-06T06:06:11.539Z,42.17
2023-03-06T06:08:38.436Z,40.92
2023-03-06T06:11:07.338Z,41.10
2023-03-06T06:13:34.529Z,42.33
2023-03-06T06:16:16.435Z,42.72
2023-03-06T06:18:43.585Z,41.05
2023-03-06T06:21:13.115Z,38.38
2023-03-06T06:23:40.251Z,42.83
2023-03-06T06:26:08.837Z,37.60
2023-03-06T06:28:36.004Z,35.80
2023-03-06T06:31:12.425Z,39.97
2023-03-06T06:33:41.164Z,43.78
2023-03-06T06:36:20.613Z,38.15
2023-03-06T06:38:47.987Z,38.45
2023-03-06T06:44:08.441Z,39.38
2023-03-06T06:47:20.776Z,45.95
2023-03-06T06:49:23.802Z,37.85
2023-03-06T06:51:50.554Z,37.40
2023-03-06T06:54:18.674Z,41.30
2023-03-06T06:56:45.351Z,44.67
2023-03-06T06:59:17.175Z,42.53
2023-03-06T07:01:44.822Z,39.88
2023-03-06T07:04:13.679Z,39.30
2023-03-06T07:06:41.962Z,38.53
2023-03-06T07:09:08.808Z,38.38
2023-03-06T07:11:37.630Z,35.88
2023-03-06T07:14:04.837Z,36.67
2023-03-06T07:16:31.556Z,41.15
2023-03-06T07:18:58.207Z,34.90
2023-03-06T07:21:24.970Z,32.60
2023-03-06T07:23:51.747Z,31.85
2023-03-06T07:26:18.470Z,36.55
2023-03-06T07:28:52.344Z,31.58
2023-03-06T07:31:26.238Z,33.70
2023-03-06T07:33:54.839Z,36.28
2023-03-06T07:36:23.931Z,32.90
2023-03-06T07:38:50.720Z,34.72
2023-03-06T07:41:21.138Z,33.15
2023-03-06T07:43:50.138Z,35.63
2023-03-06T07:46:17.824Z,34.88
2023-03-06T07:48:44.687Z,38.58
2023-03-06T07:51:18.590Z,37.03
2023-03-06T07:53:45.982Z,33.72
2023-03-06T07:56:13.509Z,35.85
2023-03-06T07:58:45.545Z,36.63
2023-03-06T08:01:19.851Z,34.78
2023-03-06T08:03:47.626Z,38.33
2023-03-06T08:06:18.850Z,47.20
2023-03-06T08:08:47.704Z,44.63
2023-03-06T08:11:16.763Z,39.67
2023-03-06T08:13:44.136Z,43.67
2023-03-06T08:16:11.782Z,43.28
2023-03-06T08:18:39.865Z,47.03
2023-03-06T08:21:13.018Z,56.70
2023-03-06T08:23:40.722Z,51.85
2023-03-06T08:26:11.901Z,56.03
2023-03-06T08:28:38.722Z,51.75
2023-03-06T08:31:19.601Z,54.22
2023-03-06T08:33:46.553Z,50.67
2023-03-06T08:36:13.228Z,51.15
2023-03-06T08:38:39.937Z,48.90
2023-03-06T08:41:06.603Z,52.67
2023-03-06T08:43:35.144Z,49.58
2023-03-06T08:46:02.693Z,46.70
2023-03-06T08:48:29.629Z,49.53
2023-03-06T08:50:56.432Z,46.42
2023-03-06T08:53:40.493Z,46.15
2023-03-06T08:56:20.047Z,43.95
2023-03-06T08:58:47.601Z,45.55
2023-03-06T09:01:27.899Z,46.35
2023-03-06T09:03:58.197Z,45.40
2023-03-06T09:06:26.674Z,46.65
2023-03-06T09:08:54.974Z,46.30
2023-03-06T09:11:23.966Z,42.85
2023-03-06T09:13:51.169Z,47.65
2023-03-06T09:16:18.020Z,45.63
2023-03-06T09:18:44.846Z,41.00
2023-03-06T09:21:11.747Z,42.90
2023-03-06T09:23:39.606Z,40.70
2023-03-06T09:26:07.920Z,42.03
2023-03-06T09:28:40.043Z,41.28
2023-03-06T09:31:14.305Z,40.25
2023-03-06T09:33:41.479Z,44.45
2023-03-06T09:36:14.840Z,45.42
2023-03-06T09:38:41.546Z,44.83
2023-03-06T09:41:30.041Z,40.45
2023-03-06T09:44:04.896Z,45.15
2023-03-06T09:47:00.973Z,44.97
2023-03-06T09:49:42.629Z,41.20
2023-03-06T09:52:43.461Z,45.60
2023-03-06T09:55:31.050Z,47.90
2023-03-06T09:58:18.056Z,38.45
2023-03-06T10:00:50.705Z,38.08
2023-03-06T10:03:29.801Z,41.22
2023-03-06T10:06:07.581Z,36.83
2023-03-06T10:09:14.378Z,34.80
2023-03-06T10:11:58.617Z,33.65
2023-03-06T10:14:57.763Z,36.30
2023-03-06T10:17:34.068Z,33.78
2023-03-06T10:20:01.339Z,33.05
2023-03-06T10:22:33.629Z,35.33
2023-03-06T10:25:30.245Z,31.02
2023-03-06T10:28:03.124Z,31.48
2023-03-06T10:30:51.800Z,32.38
2023-03-06T10:33:27.976Z,23.23
2023-03-06T10:35:56.203Z,29.75
2023-03-06T10:38:37.452Z,25.13
2023-03-06T10:41:13.226Z,28.38
2023-03-06T10:44:02.597Z,31.27
2023-03-06T10:46:36.402Z,30.27
2023-03-06T10:49:26.034Z,32.78
2023-03-06T10:52:15.642Z,31.50
2023-03-06T10:54:44.593Z,30.70
2023-03-06T10:57:32.078Z,31.05
2023-03-06T11:00:23.758Z,31.02
2023-03-06T11:03:20.885Z,33.47
2023-03-06T11:06:06.008Z,34.47
2023-03-06T11:08:33.556Z,31.92
2023-03-06T11:11:05.478Z,33.03
2023-03-06T11:13:37.588Z,26.45
2023-03-06T11:16:30.515Z,31.27
2023-03-06T11:19:16.215Z,31.48
2023-03-06T11:21:43.162Z,34.17
2023-03-06T11:24:19.930Z,35.90
2023-03-06T11:26:59.556Z,33.22
2023-03-06T11:29:43.376Z,32.20
2023-03-06T11:32:52.375Z,35.15
2023-03-06T11:35:39.384Z,34.08
2023-03-06T11:38:16.942Z,35.95
2023-03-06T11:40:53.035Z,34.85
2023-03-06T11:43:47.020Z,35.90
2023-03-06T11:46:48.668Z,35.17
2023-03-06T11:49:30.783Z,38.25
2023-03-06T11:52:10.476Z,36.03
2023-03-06T11:54:37.188Z,35.00
2023-03-06T11:57:17.844Z,35.85
2023-03-06T12:00:13.650Z,32.47
2023-03-06T12:03:10.088Z,30.70
2023-03-06T12:05:46.542Z,34.83
2023-03-06T12:08:43.960Z,31.75
2023-03-06T12:11:24.333Z,32.42
2023-03-06T12:14:04.311Z,29.73
2023-03-06T12:16:58.595Z,31.25
2023-03-06T12:20:22.746Z,29.83
2023-03-06T12:23:15.347Z,25.52
2023-03-06T12:25:50.257Z,26.73
2023-03-06T12:28:54.130Z,25.33
2023-03-06T12:31:27.170Z,27.80
2023-03-06T12:34:17.406Z,30.95
2023-03-06T12:37:11.846Z,31.98
2023-03-06T12:40:06.576Z,27.67
2023-03-06T12:43:21.609Z,25.17
2023-03-06T12:45:52.031Z,26.45
2023-03-06T12:48:27.390Z,26.77
2023-03-06T12:50:54.439Z,27.02
2023-03-06T12:53:32.697Z,31.00
2023-03-06T12:56:02.410Z,28.08
2023-03-06T12:58:29.266Z,27.13
2023-03-06T13:01:20.049Z,28.55
2023-03-06T13:04:05.568Z,26.33
2023-03-06T13:06:59.958Z,27.20
2023-03-06T13:09:35.982Z,27.23
2023-03-06T13:12:39.415Z,26.83
2023-03-06T13:15:32.592Z,24.42
2023-03-06T13:18:00.146Z,24.42
2023-03-06T13:20:52.955Z,23.25
2023-03-06T13:23:38.338Z,26.45
2023-03-06T13:26:10.762Z,24.33
2023-03-06T13:28:47.522Z,24.75
2023-03-06T13:31:27.456Z,21.48
2023-03-06T13:34:02.351Z,19.25
2023-03-06T13:36:34.392Z,20.55
2023-03-06T13:39:11.453Z,21.25
2023-03-06T13:41:59.234Z,20.20
2023-03-06T13:44:25.875Z,19.50
2023-03-06T13:47:19.486Z,23.33
2023-03-06T13:49:48.038Z,23.33
2023-03-06T13:52:32.603Z,25.42
2023-03-06T13:55:52.685Z,23.98
2023-03-06T13:58:38.472Z,26.70
2023-03-06T14:01:32.548Z,21.60
2023-03-06T14:04:39.467Z,19.60
2023-03-06T14:07:33.611Z,17.83
2023-03-06T14:10:11.321Z,12.52
2023-03-06T14:13:00.778Z,14.50
2023-03-06T14:15:50.065Z,17.40
2023-03-06T14:18:42.219Z,19.55
2023-03-06T14:21:15.809Z,20.92
2023-03-06T14:23:45.010Z,21.38
2023-03-06T14:26:22.340Z,20.23
2023-03-06T14:28:52.047Z,25.05
2023-03-06T14:31:24.532Z,21.75
2023-03-06T14:34:01.136Z,23.33
2023-03-06T14:36:53.250Z,27.30
2023-03-06T14:39:33.193Z,25.08
2023-03-06T14:42:30.992Z,28.95
2023-03-06T14:45:18.933Z,25.42
2023-03-06T14:47:53.276Z,26.02
2023-03-06T14:50:33.998Z,27.90
2023-03-06T14:53:18.044Z,27.83
2023-03-06T14:55:56.570Z,27.67
2023-03-06T14:58:45.369Z,26.83
2023-03-06T15:01:13.489Z,26.40
2023-03-06T15:03:53.172Z,25.55
2023-03-06T15:06:27.314Z,28.80
2023-03-06T15:09:26.924Z,30.08
2023-03-06T15:11:59.633Z,27.65
2023-03-06T15:14:40.759Z,26.77
2023-03-06T15:17:19.379Z,18.83
2023-03-06T15:19:52.741Z,27.55
2023-03-06T15:22:37.764Z,23.98
2023-03-06T15:25:31.357Z,26.95
2023-03-06T15:28:25.716Z,26.83
2023-03-06T15:31:18.207Z,24.35
2023-03-06T15:33:59.571Z,25.80
2023-03-06T15:36:33.449Z,25.55
2023-03-06T15:39:00.895Z,26.05
2023-03-06T15:41:37.212Z,27.08
2023-03-06T15:44:12.747Z,25.15
2023-03-06T15:46:39.914Z,28.77
2023-03-06T15:49:14.715Z,25.40
2023-03-06T15:51:41.376Z,28.40
2023-03-06T15:54:12.368Z,22.27
2023-03-06T15:56:42.954Z,23.27
2023-03-06T15:59:33.115Z,26.10
2023-03-06T16:02:16.406Z,23.60
2023-03-06T16:04:43.587Z,19.65
2023-03-06T16:07:10.389Z,22.33
2023-03-06T16:09:37.140Z,22.23
2023-03-06T16:12:05.824Z,20.23
2023-03-06T16:14:32.683Z,23.60
2023-03-06T16:16:59.590Z,19.92
2023-03-06T16:19:27.747Z,24.23
2023-03-06T16:21:56.460Z,21.27
2023-03-06T16:24:26.300Z,24.08
2023-03-06T16:26:57.873Z,20.25
2023-03-06T16:29:28.036Z,19.83
2023-03-06T16:31:57.690Z,19.30
2023-03-06T16:34:24.974Z,19.25
2023-03-06T16:36:52.162Z,19.58
2023-03-06T16:39:22.087Z,21.85
2023-03-06T16:41:52.138Z,23.27
2023-03-06T16:44:20.704Z,21.60
2023-03-06T16:46:50.093Z,24.33
2023-03-06T16:49:23.881Z,26.52
2023-03-06T16:51:51.869Z,23.33
2023-03-06T16:54:19.253Z,21.08
2023-03-06T16:56:46.301Z,25.90
2023-03-06T16:59:13.272Z,26.55
2023-03-06T17:01:44.470Z,23.80
2023-03-06T17:04:11.806Z,24.85
2023-03-06T17:06:39.455Z,23.48
2023-03-06T17:09:06.700Z,25.65
2023-03-06T17:11:35.924Z,25.50
2023-03-06T17:14:02.637Z,26.27
2023-03-06T17:16:29.517Z,25.13
2023-03-06T17:18:58.166Z,23.77
2023-03-06T17:21:30.153Z,24.52
2023-03-06T17:23:57.301Z,28.77
2023-03-06T17:26:24.276Z,28.25
2023-03-06T17:28:51.042Z,26.95
2023-03-06T17:31:25.418Z,27.05
2023-03-06T17:33:57.126Z,26.40
2023-03-06T17:36:23.910Z,27.75
2023-03-06T17:38:51.251Z,32.05
2023-03-06T17:41:18.640Z,28.70
2023-03-06T17:43:48.022Z,25.80
2023-03-06T17:46:14.930Z,26.45
2023-03-06T17:48:41.713Z,30.35
2023-03-06T17:51:09.321Z,30.45
2023-03-06T17:53:37.209Z,29.08
2023-03-06T17:56:06.659Z,25.98
2023-03-06T17:58:34.011Z,30.48
2023-03-06T18:01:00.901Z,26.58
2023-03-06T18:03:27.678Z,27.55
2023-03-06T18:06:03.427Z,27.63
2023-03-06T18:08:30.882Z,25.92
2023-03-06T18:11:04.214Z,31.30
2023-03-06T18:13:36.861Z,32.05
2023-03-06T18:16:04.956Z,24.88
2023-03-06T18:18:31.978Z,35.75
2023-03-06T18:21:04.469Z,29.23
2023-03-06T18:23:31.960Z,32.00
2023-03-06T18:26:17.100Z,28.30
2023-03-06T18:28:47.461Z,28.98
2023-03-06T18:31:34.654Z,29.42
2023-03-06T18:34:11.666Z,27.33
2023-03-06T18:36:40.158Z,31.55
2023-03-06T18:39:09.713Z,32.45
2023-03-06T18:41:37.370Z,29.15
2023-03-06T18:44:05.217Z,27.92
2023-03-06T18:46:36.424Z,27.33
2023-03-06T18:49:04.517Z,26.42
2023-03-06T18:51:32.265Z,30.50
2023-03-06T18:54:01.255Z,34.20
2023-03-06T18:56:30.664Z,28.50
2023-03-06T18:59:02.883Z,31.98
2023-03-06T19:01:31.272Z,27.20
2023-03-06T19:04:03.790Z,28.05
2023-03-06T19:06:31.009Z,27.50
2023-03-06T19:09:02.083Z,28.98
2023-03-06T19:11:29.733Z,29.92
2023-03-06T19:13:56.529Z,25.90
2023-03-06T19:16:31.168Z,29.52
2023-03-06T19:18:58.013Z,25.38
2023-03-06T19:21:27.696Z,27.75
2023-03-06T19:23:56.050Z,24.02
2023-03-06T19:26:23.430Z,29.63
2023-03-06T19:28:50.511Z,23.45
2023-03-06T19:31:26.798Z,26.27
2023-03-06T19:33:55.890Z,31.00
2023-03-06T19:36:27.549Z,25.85
2023-03-06T19:38:56.496Z,28.20
2023-03-06T19:41:23.723Z,29.50
2023-03-06T19:43:54.429Z,28.27
2023-03-06T19:46:23.066Z,25.63
2023-03-06T19:49:02.370Z,29.58
2023-03-06T19:51:29.557Z,27.13
2023-03-06T19:53:57.530Z,26.90
2023-03-06T19:56:29.223Z,24.73
2023-03-06T19:58:56.513Z,24.98
2023-03-06T20:01:27.928Z,26.52
2023-03-06T20:03:59.778Z,21.70
2023-03-06T20:06:37.589Z,25.05
2023-03-06T20:09:09.085Z,26.00
2023-03-06T20:11:36.199Z,27.60
2023-03-06T20:14:06.049Z,27.17
2023-03-06T20:16:33.874Z,25.27
2023-03-06T20:19:01.836Z,26.65
2023-03-06T20:21:31.926Z,28.23
2023-03-06T20:23:59.334Z,25.75
2023-03-06T20:26:28.896Z,26.83
2023-03-06T20:28:56.612Z,29.23
2023-03-06T20:31:28.125Z,25.00
2023-03-06T20:33:57.983Z,29.20
2023-03-06T20:36:28.762Z,30.33
2023-03-06T20:38:56.545Z,29.80
2023-03-06T20:41:27.374Z,29.48
2023-03-06T20:43:54.810Z,26.83
2023-03-06T20:46:23.621Z,26.58
2023-03-06T20:48:52.669Z,32.08
2023-03-06T20:51:20.729Z,27.20
2023-03-06T20:53:49.802Z,31.50
2023-03-06T20:56:20.314Z,30.13
2023-03-06T20:58:47.499Z,32.33
2023-03-06T21:01:27.262Z,31.48
2023-03-06T21:03:56.810Z,29.52
2023-03-06T21:06:24.050Z,29.50
2023-03-06T21:08:51.343Z,32.92
2023-03-06T21:11:18.574Z,31.30
2023-03-06T21:13:45.414Z,34.13
2023-03-06T21:16:19.425Z,30.20
2023-03-06T21:18:46.849Z,33.20
2023-03-06T21:21:19.105Z,34.90
2023-03-06T21:23:48.175Z,32.17
2023-03-06T21:26:24.396Z,34.88
2023-03-06T21:28:52.339Z,39.67
2023-03-06T21:31:22.621Z,37.30
2023-03-06T21:33:50.984Z,37.72
2023-03-06T21:36:21.853Z,42.55
2023-03-06T21:38:50.674Z,43.85
2023-03-06T21:41:18.961Z,39.85
2023-03-06T21:43:46.228Z,40.47
2023-03-06T21:46:13.584Z,39.95
2023-03-06T21:48:40.603Z,43.30
2023-03-06T21:51:15.771Z,41.95
2023-03-06T21:53:44.854Z,42.10
2023-03-06T21:56:13.201Z,40.58
2023-03-06T21:58:40.193Z,39.40
2023-03-06T22:01:20.165Z,43.17
2023-03-06T22:03:47.343Z,40.03
2023-03-06T22:06:21.746Z,41.10
2023-03-06T22:08:48.734Z,38.83
2023-03-06T22:11:20.972Z,39.38
2023-03-06T22:13:48.356Z,39.15
2023-03-06T22:16:17.055Z,37.92
2023-03-06T22:18:49.640Z,36.65
2023-03-06T22:21:20.336Z,37.72
2023-03-06T22:23:57.483Z,34.83
2023-03-06T22:26:25.827Z,36.70
2023-03-06T22:28:52.607Z,36.05
2023-03-06T22:31:26.061Z,34.83
2023-03-06T22:33:54.485Z,35.20
2023-03-06T22:36:22.433Z,31.08
2023-03-06T22:38:49.702Z,30.52
2023-03-06T22:41:17.940Z,28.67
2023-03-06T22:43:44.668Z,30.45
2023-03-06T22:46:17.072Z,32.95
2023-03-06T22:48:44.610Z,29.75
2023-03-06T22:51:17.922Z,31.92
2023-03-06T22:53:45.723Z,29.20
2023-03-06T22:56:16.399Z,32.22
2023-03-06T22:58:44.802Z,26.90
2023-03-06T23:01:18.465Z,28.65
2023-03-06T23:03:51.443Z,26.83
2023-03-06T23:06:29.386Z,32.20
2023-03-06T23:09:00.796Z,29.42
2023-03-06T23:11:28.855Z,29.17
2023-03-06T23:14:15.722Z,29.48
2023-03-06T23:17:01.165Z,26.73
2023-03-06T23:19:49.412Z,27.48
2023-03-06T23:22:34.498Z,29.15
2023-03-06T23:25:19.798Z,26.92
2023-03-06T23:27:46.450Z,24.75
2023-03-06T23:30:13.737Z,23.88
2023-03-06T23:32:40.423Z,25.13
2023-03-06T23:35:07.693Z,25.27
2023-03-06T23:37:34.360Z,22.25
2023-03-06T23:40:01.478Z,24.10
2023-03-06T23:42:28.177Z,23.58
2023-03-06T23:44:54.820Z,22.63
2023-03-06T23:47:21.523Z,19.10
2023-03-06T23:49:48.197Z,20.48
2023-03-06T23:52:14.846Z,21.77
2023-03-06T23:54:41.497Z,19.02
2023-03-06T23:57:08.396Z,19.10
2023-03-06T23:59:35.036Z,18.98
